createdAt,value
2018-11-25T00:01:17.219Z,29.13
2018-11-25T00:04:21.232Z,27.10
2018-11-25T00:07:25.240Z,29.00
2018-11-25T00:10:29.268Z,28.07
2018-11-25T00:13:33.321Z,29.70
2018-11-25T00:16:37.335Z,28.47
2018-11-25T00:19:41.353Z,30.07
2018-11-25T00:22:45.368Z,30.93
2018-11-25T00:25:49.391Z,29.37
2018-11-25T00:28:53.416Z,31.20
2018-11-25T00:31:57.486Z,29.73
2018-11-25T00:35:01.516Z,30.27
2018-11-25T00:38:05.866Z,31.30
2018-11-25T00:41:09.905Z,34.00
2018-11-25T00:44:13.927Z,29.90
2018-11-25T00:47:17.956Z,30.53
2018-11-25T00:50:21.976Z,30.57
2018-11-25T00:53:25.982Z,28.70
2018-11-25T00:56:30.017Z,30.97
2018-11-25T00:59:34.039Z,30.53
2018-11-25T01:02:38.043Z,28.97
2018-11-25T01:05:42.076Z,30.57
2018-11-25T01:08:46.065Z,34.20
2018-11-25T01:11:50.098Z,34.70
2018-11-25T01:14:54.138Z,34.73
2018-11-25T01:17:58.143Z,30.03
2018-11-25T01:21:02.164Z,30.50
2018-11-25T01:24:06.287Z,35.57
2018-11-25T01:27:10.289Z,33.00
2018-11-25T01:30:15.155Z,31.00
2018-11-25T01:33:19.150Z,32.10
2018-11-25T01:36:23.183Z,29.70
2018-11-25T01:39:27.181Z,30.90
2018-11-25T01:42:31.212Z,32.30
2018-11-25T01:45:35.206Z,33.77
2018-11-25T01:48:39.222Z,32.40
2018-11-25T01:51:43.238Z,28.83
2018-11-25T01:54:47.257Z,33.60
2018-11-25T01:57:51.381Z,33.03
2018-11-25T02:00:55.410Z,33.47
2018-11-25T02:03:59.467Z,31.30
2018-11-25T02:07:03.489Z,34.77
2018-11-25T02:10:10.222Z,31.67
2018-11-25T02:13:14.229Z,31.00
2018-11-25T02:16:18.231Z,32.57
2018-11-25T02:19:22.242Z,34.33
2018-11-25T02:22:26.269Z,35.00
2018-11-25T02:25:30.282Z,31.43
2018-11-25T02:28:34.302Z,32.50
2018-11-25T02:31:38.318Z,32.03
2018-11-25T02:34:42.330Z,30.40
2018-11-25T02:37:46.378Z,32.73
2018-11-25T02:40:50.682Z,35.23
2018-11-25T02:43:54.677Z,31.13
2018-11-25T02:46:58.700Z,31.93
2018-11-25T02:50:02.750Z,33.13
2018-11-25T02:53:07.522Z,31.67
2018-11-25T02:56:11.525Z,31.37
2018-11-25T02:59:15.538Z,33.07
2018-11-25T03:02:19.776Z,32.93
2018-11-25T03:05:23.785Z,34.30
2018-11-25T03:08:27.793Z,33.90
2018-11-25T03:11:31.802Z,36.57
2018-11-25T03:14:35.819Z,37.30
2018-11-25T03:17:39.830Z,30.50
2018-11-25T03:20:43.829Z,34.30
2018-11-25T03:23:47.850Z,30.57
2018-11-25T03:26:51.853Z,34.47
2018-11-25T03:29:55.870Z,31.10
2018-11-25T03:32:59.867Z,32.07
2018-11-25T03:36:03.898Z,30.10
2018-11-25T03:39:08.175Z,30.27
2018-11-25T03:42:12.214Z,32.87
2018-11-25T03:45:17.102Z,29.83
2018-11-25T03:48:21.105Z,32.50
2018-11-25T03:51:25.109Z,31.70
2018-11-25T03:54:29.133Z,33.17
2018-11-25T03:57:33.144Z,37.43
2018-11-25T04:00:37.166Z,35.97
2018-11-25T04:03:41.190Z,34.33
2018-11-25T04:06:45.200Z,35.67
2018-11-25T04:09:49.219Z,39.87
2018-11-25T04:12:53.220Z,39.37
2018-11-25T04:15:57.233Z,36.53
2018-11-25T04:19:01.236Z,36.40
2018-11-25T04:22:05.271Z,33.83
2018-11-25T04:25:10.218Z,33.70
2018-11-25T04:28:14.226Z,37.97
2018-11-25T04:31:18.225Z,36.07
2018-11-25T04:34:22.229Z,37.93
2018-11-25T04:37:26.258Z,38.60
2018-11-25T04:40:30.289Z,38.63
2018-11-25T04:43:34.287Z,41.90
2018-11-25T04:46:38.294Z,36.13
2018-11-25T04:49:42.305Z,31.20
2018-11-25T04:52:46.313Z,42.00
2018-11-25T04:55:50.329Z,35.50
2018-11-25T04:58:54.334Z,36.27
2018-11-25T05:01:58.341Z,49.77
2018-11-25T05:05:02.363Z,37.17
2018-11-25T05:08:06.603Z,41.30
2018-11-25T05:11:10.625Z,42.07
2018-11-25T05:14:14.625Z,45.23
2018-11-25T05:17:18.633Z,40.90
2018-11-25T05:20:22.634Z,46.37
2018-11-25T05:23:26.672Z,54.70
2018-11-25T05:26:30.685Z,42.43
2018-11-25T05:29:34.685Z,45.27
2018-11-25T05:32:38.702Z,37.27
2018-11-25T05:35:42.701Z,47.67
2018-11-25T05:38:46.707Z,37.50
2018-11-25T05:41:50.705Z,44.00
2018-11-25T05:44:54.717Z,43.27
2018-11-25T05:47:58.749Z,39.57
2018-11-25T05:51:02.759Z,41.80
2018-11-25T05:54:06.787Z,36.33
2018-11-25T05:57:10.794Z,38.20
2018-11-25T06:00:16.811Z,39.27
2018-11-25T06:03:20.821Z,36.53
2018-11-25T06:06:24.838Z,47.47
2018-11-25T06:09:28.867Z,38.27
2018-11-25T06:12:32.896Z,37.23
2018-11-25T06:15:36.917Z,31.83
2018-11-25T06:18:40.935Z,33.67
2018-11-25T06:21:44.945Z,38.03
2018-11-25T06:24:48.952Z,36.70
2018-11-25T06:27:52.973Z,41.53
2018-11-25T06:30:56.993Z,32.00
2018-11-25T06:34:01.039Z,35.73
2018-11-25T06:37:05.086Z,36.80
2018-11-25T06:40:11.280Z,33.33
2018-11-25T06:43:15.279Z,30.57
2018-11-25T06:46:19.298Z,32.40
2018-11-25T06:49:23.306Z,31.57
2018-11-25T06:52:27.307Z,31.07
2018-11-25T06:55:31.322Z,30.87
2018-11-25T06:58:35.350Z,31.63
2018-11-25T07:01:39.362Z,31.57
2018-11-25T07:04:43.365Z,32.30
2018-11-25T07:07:47.363Z,29.80
2018-11-25T07:10:51.926Z,26.80
2018-11-25T07:13:55.948Z,25.63
2018-11-25T07:16:59.980Z,26.97
2018-11-25T07:20:04.018Z,27.70
2018-11-25T07:23:08.030Z,25.87
2018-11-25T07:26:12.052Z,29.03
2018-11-25T07:29:16.055Z,26.80
2018-11-25T07:32:20.062Z,24.57
2018-11-25T07:35:26.157Z,23.70
2018-11-25T07:38:30.163Z,24.00
2018-11-25T07:41:34.183Z,17.77
2018-11-25T07:44:38.183Z,18.17
2018-11-25T07:47:42.200Z,16.80
2018-11-25T07:50:46.206Z,20.77
2018-11-25T07:53:50.221Z,17.20
2018-11-25T07:56:54.237Z,21.87
2018-11-25T07:59:58.246Z,17.90
2018-11-25T08:03:02.271Z,19.93
2018-11-25T08:06:06.282Z,18.20
2018-11-25T08:09:11.116Z,18.20
2018-11-25T08:12:15.152Z,18.37
2018-11-25T08:15:19.639Z,19.13
2018-11-25T08:18:23.657Z,18.03
2018-11-25T08:21:27.657Z,18.43
2018-11-25T08:24:31.685Z,16.40
2018-11-25T08:27:35.713Z,20.07
2018-11-25T08:30:39.716Z,22.33
2018-11-25T08:33:43.737Z,20.67
2018-11-25T08:36:47.849Z,18.90
2018-11-25T08:39:51.885Z,22.37
2018-11-25T08:42:55.926Z,22.27
2018-11-25T08:45:59.925Z,18.97
2018-11-25T08:49:04.012Z,18.73
2018-11-25T08:52:08.122Z,17.90
2018-11-25T08:55:16.906Z,19.80
2018-11-25T08:58:20.922Z,20.37
2018-11-25T09:01:24.966Z,22.93
2018-11-25T09:04:28.973Z,19.77
2018-11-25T09:07:33.000Z,18.87
2018-11-25T09:10:37.010Z,19.43
2018-11-25T09:13:41.065Z,22.53
2018-11-25T09:16:45.085Z,22.53
2018-11-25T09:19:49.114Z,23.57
2018-11-25T09:22:53.295Z,25.30
2018-11-25T09:25:57.315Z,26.20
2018-11-25T09:29:01.321Z,26.30
2018-11-25T09:32:06.118Z,25.30
2018-11-25T09:35:10.141Z,26.17
2018-11-25T09:38:14.154Z,23.67
2018-11-25T09:41:18.199Z,29.73
2018-11-25T09:44:22.194Z,27.27
2018-11-25T09:47:26.221Z,26.40
2018-11-25T09:50:30.239Z,26.33
2018-11-25T09:53:34.237Z,21.93
2018-11-25T09:56:38.241Z,28.17
2018-11-25T09:59:42.255Z,21.77
2018-11-25T10:02:46.254Z,22.37
2018-11-25T10:05:50.275Z,20.60
2018-11-25T10:08:54.522Z,24.57
2018-11-25T10:11:58.517Z,27.10
2018-11-25T10:15:02.546Z,23.23
2018-11-25T10:18:06.550Z,25.80
2018-11-25T10:21:10.573Z,24.80
2018-11-25T10:24:14.590Z,23.70
2018-11-25T10:27:18.602Z,23.00
2018-11-25T10:30:23.802Z,24.17
2018-11-25T10:33:27.785Z,21.80
2018-11-25T10:36:31.854Z,25.00
2018-11-25T10:39:35.903Z,21.63
2018-11-25T10:42:39.897Z,19.80
2018-11-25T10:45:43.927Z,17.80
2018-11-25T10:48:47.934Z,19.53
2018-11-25T10:51:51.938Z,20.27
2018-11-25T10:54:55.946Z,20.23
2018-11-25T10:57:59.944Z,23.13
2018-11-25T11:01:09.448Z,23.00
2018-11-25T11:04:17.687Z,30.43
2018-11-25T11:07:22.014Z,23.60
2018-11-25T11:10:26.010Z,23.50
2018-11-25T11:13:30.050Z,21.90
2018-11-25T11:16:34.075Z,21.97
2018-11-25T11:19:38.061Z,21.43
2018-11-25T11:22:42.074Z,19.20
2018-11-25T11:25:46.140Z,22.50
2018-11-25T11:28:50.137Z,20.30
2018-11-25T11:31:54.219Z,21.53
2018-11-25T11:34:58.230Z,19.63
2018-11-25T11:38:02.226Z,17.63
2018-11-25T11:41:06.238Z,19.57
2018-11-25T11:44:10.246Z,17.73
2018-11-25T11:47:14.265Z,22.50
2018-11-25T11:50:20.554Z,16.40
2018-11-25T11:53:24.556Z,18.37
2018-11-25T11:56:28.570Z,19.63
2018-11-25T11:59:32.565Z,16.80
2018-11-25T12:02:36.562Z,16.90
2018-11-25T12:05:40.584Z,15.83
2018-11-25T12:08:44.590Z,18.93
2018-11-25T12:11:48.605Z,17.20
2018-11-25T12:14:52.612Z,17.77
2018-11-25T12:17:56.608Z,18.90
2018-11-25T12:21:00.713Z,18.80
2018-11-25T12:24:04.785Z,24.10
2018-11-25T12:27:08.789Z,18.83
2018-11-25T12:30:13.912Z,17.83
2018-11-25T12:33:17.958Z,17.43
2018-11-25T12:36:21.978Z,15.37
2018-11-25T12:39:28.383Z,18.23
2018-11-25T12:42:29.986Z,17.50
2018-11-25T12:45:34.018Z,18.83
2018-11-25T12:48:38.017Z,19.43
2018-11-25T12:51:42.017Z,18.90
2018-11-25T12:54:46.017Z,16.30
2018-11-25T12:57:50.073Z,17.27
2018-11-25T13:00:54.081Z,18.23
2018-11-25T13:03:58.141Z,16.10
2018-11-25T13:07:02.151Z,14.47
2018-11-25T13:10:06.401Z,14.27
2018-11-25T13:13:11.299Z,14.10
2018-11-25T13:16:15.314Z,14.03
2018-11-25T13:19:19.320Z,14.00
2018-11-25T13:22:23.339Z,17.60
2018-11-25T13:25:27.332Z,14.13
2018-11-25T13:28:31.340Z,14.00
2018-11-25T13:31:35.437Z,12.97
2018-11-25T13:34:39.437Z,14.77
2018-11-25T13:37:43.459Z,12.53
2018-11-25T13:40:47.449Z,12.70
2018-11-25T13:43:51.449Z,15.97
2018-11-25T13:46:55.450Z,13.33
2018-11-25T13:49:59.504Z,12.63
2018-11-25T13:53:03.445Z,15.77
2018-11-25T13:56:07.490Z,15.50
2018-11-25T13:59:11.497Z,15.53
2018-11-25T14:02:15.508Z,15.30
2018-11-25T14:05:19.505Z,14.57
2018-11-25T14:08:23.504Z,14.23
2018-11-25T14:11:27.553Z,13.87
2018-11-25T14:14:31.562Z,16.53
2018-11-25T14:17:35.581Z,12.37
2018-11-25T14:20:39.579Z,16.53
2018-11-25T14:23:43.596Z,15.40
2018-11-25T14:26:53.787Z,16.67
2018-11-25T14:29:57.825Z,15.23
2018-11-25T14:33:01.851Z,16.37
2018-11-25T14:36:06.319Z,17.73
2018-11-25T14:39:11.901Z,18.37
2018-11-25T14:42:15.978Z,18.80
2018-11-25T14:45:19.997Z,20.13
2018-11-25T14:48:24.013Z,19.63
2018-11-25T14:51:28.064Z,19.30
2018-11-25T14:54:32.250Z,21.63
2018-11-25T14:57:36.255Z,21.37
2018-11-25T15:00:40.250Z,22.57
2018-11-25T15:03:44.266Z,17.70
2018-11-25T15:06:48.271Z,22.43
2018-11-25T15:09:52.284Z,22.43
2018-11-25T15:12:56.277Z,23.30
2018-11-25T15:16:01.511Z,21.90
2018-11-25T15:19:06.339Z,28.47
2018-11-25T15:22:10.394Z,21.67
2018-11-25T15:25:17.675Z,23.27
2018-11-25T15:28:21.672Z,23.10
2018-11-25T15:31:25.849Z,22.73
2018-11-25T15:34:29.854Z,21.73
2018-11-25T15:37:33.873Z,20.33
2018-11-25T15:40:38.434Z,17.63
2018-11-25T15:43:42.425Z,17.27
2018-11-25T15:46:46.434Z,18.30
2018-11-25T15:49:50.435Z,16.20
2018-11-25T15:52:54.920Z,19.57
2018-11-25T15:56:01.078Z,17.83
2018-11-25T15:59:05.218Z,18.63
2018-11-25T16:02:09.285Z,20.23
2018-11-25T16:05:15.771Z,17.30
2018-11-25T16:08:19.749Z,19.33
2018-11-25T16:11:23.750Z,16.30
2018-11-25T16:14:27.773Z,17.30
2018-11-25T16:17:31.868Z,17.93
2018-11-25T16:20:35.917Z,16.90
2018-11-25T16:23:39.928Z,18.70
2018-11-25T16:26:44.355Z,22.33
2018-11-25T16:29:48.357Z,18.00
2018-11-25T16:32:52.360Z,19.00
2018-11-25T16:35:56.418Z,17.80
2018-11-25T16:39:00.410Z,16.60
2018-11-25T16:42:04.467Z,21.00
2018-11-25T16:45:11.150Z,19.90
2018-11-25T16:48:15.186Z,17.57
2018-11-25T16:51:19.174Z,18.90
2018-11-25T16:54:23.182Z,19.93
2018-11-25T16:57:27.177Z,18.87
2018-11-25T17:00:31.177Z,25.27
2018-11-25T17:03:35.198Z,18.27
2018-11-25T17:06:40.348Z,20.03
2018-11-25T17:09:44.353Z,18.37
2018-11-25T17:12:48.455Z,23.83
2018-11-25T17:15:52.506Z,24.93
2018-11-25T17:18:56.542Z,25.33
2018-11-25T17:22:00.554Z,26.03
2018-11-25T17:25:06.215Z,22.10
2018-11-25T17:28:10.265Z,13.00
2018-11-25T17:31:14.283Z,12.47
2018-11-25T17:34:18.308Z,13.00
2018-11-25T17:37:22.302Z,13.47
2018-11-25T17:40:26.317Z,11.33
2018-11-25T17:43:30.345Z,11.60
2018-11-25T17:46:34.353Z,12.20
2018-11-25T17:49:38.362Z,12.73
2018-11-25T17:52:42.404Z,13.33
2018-11-25T17:55:46.541Z,12.77
2018-11-25T17:58:50.543Z,13.73
2018-11-25T18:01:54.557Z,12.97
2018-11-25T18:04:58.570Z,14.40
2018-11-25T18:08:02.599Z,13.17
2018-11-25T18:11:06.597Z,15.70
2018-11-25T18:14:10.649Z,13.70
2018-11-25T18:17:14.648Z,13.87
2018-11-25T18:20:18.650Z,11.50
2018-11-25T18:23:22.940Z,12.97
2018-11-25T18:26:27.053Z,14.23
2018-11-25T18:29:31.077Z,13.93
2018-11-25T18:32:35.084Z,13.30
2018-11-25T18:35:39.100Z,13.30
2018-11-25T18:38:43.116Z,15.00
2018-11-25T18:41:47.170Z,13.73
2018-11-25T18:44:51.155Z,13.97
2018-11-25T18:47:55.148Z,15.07
2018-11-25T18:50:59.149Z,14.70
2018-11-25T18:54:03.180Z,14.43
2018-11-25T18:57:07.170Z,16.40
2018-11-25T19:00:12.995Z,12.63
2018-11-25T19:03:17.014Z,16.30
2018-11-25T19:06:21.005Z,16.43
2018-11-25T19:09:25.018Z,15.10
2018-11-25T19:12:29.059Z,15.00
2018-11-25T19:15:33.030Z,13.53
2018-11-25T19:18:37.042Z,13.70
2018-11-25T19:21:41.039Z,14.27
2018-11-25T19:24:45.059Z,15.47
2018-11-25T19:27:49.142Z,13.73
2018-11-25T19:30:53.152Z,16.10
2018-11-25T19:33:57.150Z,17.57
2018-11-25T19:37:01.150Z,16.83
2018-11-25T19:40:08.773Z,14.90
2018-11-25T19:43:12.778Z,13.20
2018-11-25T19:46:16.789Z,16.40
2018-11-25T19:49:20.808Z,14.60
2018-11-25T19:52:24.926Z,15.00
2018-11-25T19:55:28.943Z,15.63
2018-11-25T19:58:32.933Z,14.00
2018-11-25T20:01:37.026Z,16.90
2018-11-25T20:04:41.045Z,15.83
2018-11-25T20:07:45.421Z,16.40
2018-11-25T20:10:49.429Z,14.37
2018-11-25T20:13:53.433Z,16.70
2018-11-25T20:17:02.836Z,21.40
2018-11-25T20:20:12.181Z,14.43
2018-11-25T20:23:16.189Z,13.53
2018-11-25T20:26:20.210Z,15.03
2018-11-25T20:29:24.304Z,13.07
2018-11-25T20:32:33.790Z,17.60
2018-11-25T20:35:37.819Z,14.63
2018-11-25T20:38:47.021Z,14.73
2018-11-25T20:41:51.038Z,13.90
2018-11-25T20:44:55.028Z,12.80
2018-11-25T20:47:59.832Z,12.30
2018-11-25T20:51:03.881Z,14.87
2018-11-25T20:54:07.908Z,13.93
2018-11-25T20:57:11.918Z,12.60
2018-11-25T21:00:18.021Z,11.10
2018-11-25T21:03:22.047Z,12.97
2018-11-25T21:06:26.051Z,13.67
2018-11-25T21:09:30.059Z,13.73
2018-11-25T21:12:34.068Z,12.10
2018-11-25T21:15:38.081Z,13.10
2018-11-25T21:18:42.094Z,12.83
2018-11-25T21:21:46.101Z,12.33
2018-11-25T21:24:50.117Z,12.37
2018-11-25T21:27:54.214Z,10.20
2018-11-25T21:30:58.210Z,12.33
2018-11-25T21:34:02.230Z,13.00
2018-11-25T21:37:06.615Z,11.77
2018-11-25T21:40:16.649Z,13.77
2018-11-25T21:43:20.664Z,11.60
2018-11-25T21:46:24.671Z,13.50
2018-11-25T21:49:28.763Z,12.67
2018-11-25T21:52:32.766Z,13.17
2018-11-25T21:55:37.192Z,12.97
2018-11-25T21:58:41.286Z,11.97
2018-11-25T22:01:45.289Z,13.80
2018-11-25T22:04:49.350Z,13.20
2018-11-25T22:07:53.467Z,14.07
2018-11-25T22:10:57.470Z,12.13
2018-11-25T22:14:01.485Z,13.57
2018-11-25T22:17:05.803Z,13.87
2018-11-25T22:20:10.797Z,17.57
2018-11-25T22:23:14.806Z,13.07
2018-11-25T22:26:18.811Z,14.80
2018-11-25T22:29:22.842Z,16.90
2018-11-25T22:32:26.838Z,16.33
2018-11-25T22:35:30.850Z,15.80
2018-11-25T22:38:34.949Z,13.53
2018-11-25T22:41:39.041Z,16.00
2018-11-25T22:44:43.029Z,17.37
2018-11-25T22:47:47.033Z,16.90
2018-11-25T22:50:51.047Z,15.30
2018-11-25T22:53:55.055Z,16.57
2018-11-25T22:56:59.183Z,16.93
2018-11-25T23:00:03.198Z,14.97
2018-11-25T23:03:07.485Z,12.90
2018-11-25T23:06:20.590Z,14.93
2018-11-25T23:09:24.609Z,16.70
2018-11-25T23:12:28.735Z,15.47
2018-11-25T23:15:32.733Z,15.73
2018-11-25T23:18:36.749Z,14.63
2018-11-25T23:21:40.821Z,19.70
2018-11-25T23:24:44.927Z,19.03
2018-11-25T23:27:48.925Z,14.57
2018-11-25T23:30:52.937Z,17.80
2018-11-25T23:33:56.942Z,17.30
2018-11-25T23:37:01.033Z,20.47
2018-11-25T23:40:06.017Z,16.60
2018-11-25T23:43:10.032Z,17.40
2018-11-25T23:46:14.037Z,16.30
2018-11-25T23:49:18.037Z,18.63
2018-11-25T23:52:22.033Z,14.73
2018-11-25T23:55:26.094Z,15.10
2018-11-25T23:58:30.101Z,20.00
